Time;durP1;ratioP1;P1;durP2;ratioP2;P2;SDS_P1;SDS_P2;PMS_P1;PMS_P2;Temp;Humidity;BMP_temperature;BMP_pressure;BME280_temperature;BME280_humidity;BME280_pressure;Samples;Min_cycle;Max_cycle;Signal;HPM_P1;HPM_P2
2022/03/06 00:00:09;;;;;;;18.73;11.90;;;;;;;;;;5078297;28;20216;-68
2022/03/06 00:02:36;;;;;;;20.77;12.32;;;;;;;;;;5078354;28;20208;-68
2022/03/06 00:05:03;;;;;;;18.23;12.07;;;;;;;;;;5078506;28;20224;-68
2022/03/06 00:07:29;;;;;;;19.23;12.15;;;;;;;;;;5079690;28;20242;-67
2022/03/06 00:09:55;;;;;;;19.73;12.75;;;;;;;;;;5083966;28;20197;-67
2022/03/06 00:12:22;;;;;;;18.83;12.05;;;;;;;;;;5083733;28;20472;-67
2022/03/06 00:14:48;;;;;;;18.27;12.43;;;;;;;;;;5083624;28;20203;-67
2022/03/06 00:17:16;;;;;;;19.90;13.80;;;;;;;;;;5083268;28;20444;-67
2022/03/06 00:19:42;;;;;;;20.55;12.82;;;;;;;;;;5083273;28;20361;-67
2022/03/06 00:22:09;;;;;;;21.35;12.85;;;;;;;;;;5083730;28;20200;-67
2022/03/06 00:24:35;;;;;;;18.23;12.38;;;;;;;;;;5083778;28;20204;-67
2022/03/06 00:27:02;;;;;;;20.27;12.38;;;;;;;;;;5083329;28;20196;-67
2022/03/06 00:29:28;;;;;;;20.85;12.63;;;;;;;;;;5083434;28;20200;-67
2022/03/06 00:31:54;;;;;;;19.13;12.23;;;;;;;;;;5083706;28;20196;-67
2022/03/06 00:34:22;;;;;;;17.35;11.73;;;;;;;;;;5083397;28;20200;-67
2022/03/06 00:36:48;;;;;;;23.63;13.82;;;;;;;;;;5082773;28;20220;-67
2022/03/06 00:39:14;;;;;;;19.58;12.65;;;;;;;;;;5083205;28;20197;-67
2022/03/06 00:41:41;;;;;;;18.77;12.23;;;;;;;;;;5083208;28;20283;-68
2022/03/06 00:44:07;;;;;;;24.80;12.38;;;;;;;;;;5083086;28;20378;-67
2022/03/06 00:46:33;;;;;;;18.55;11.82;;;;;;;;;;5082902;28;20201;-67
2022/03/06 00:48:59;;;;;;;18.27;11.85;;;;;;;;;;5083087;28;20412;-67
2022/03/06 00:51:27;;;;;;;19.67;12.30;;;;;;;;;;5082878;28;20326;-67
2022/03/06 00:53:53;;;;;;;19.55;12.60;;;;;;;;;;5083056;28;20196;-67
2022/03/06 00:56:19;;;;;;;17.33;11.32;;;;;;;;;;5082737;28;20203;-67
2022/03/06 00:58:46;;;;;;;18.10;11.88;;;;;;;;;;5082655;28;20224;-67
2022/03/06 01:01:12;;;;;;;19.55;12.23;;;;;;;;;;5083072;28;20211;-68
2022/03/06 01:03:40;;;;;;;20.02;12.60;;;;;;;;;;5082829;28;20196;-68
2022/03/06 01:06:06;;;;;;;17.58;11.95;;;;;;;;;;5082444;28;20238;-67
2022/03/06 01:08:34;;;;;;;21.17;12.73;;;;;;;;;;5082798;28;20499;-67
2022/03/06 01:11:02;;;;;;;21.40;12.27;;;;;;;;;;5082644;28;20530;-69
2022/03/06 01:13:28;;;;;;;18.23;12.10;;;;;;;;;;5082480;28;20232;-68
2022/03/06 01:15:54;;;;;;;18.98;11.85;;;;;;;;;;5082743;28;20200;-68
2022/03/06 01:18:21;;;;;;;20.90;12.55;;;;;;;;;;5082394;28;20398;-67
2022/03/06 01:20:47;;;;;;;20.92;11.85;;;;;;;;;;5082594;28;20196;-67
2022/03/06 01:23:13;;;;;;;20.05;12.65;;;;;;;;;;5082552;28;20196;-67
2022/03/06 01:25:41;;;;;;;20.15;12.82;;;;;;;;;;5082299;28;20203;-68
2022/03/06 01:28:07;;;;;;;17.88;12.38;;;;;;;;;;5082235;28;20193;-67
2022/03/06 01:30:34;;;;;;;19.02;12.18;;;;;;;;;;5082297;28;20492;-67
2022/03/06 01:33:00;;;;;;;19.55;12.50;;;;;;;;;;5082513;28;20200;-67
2022/03/06 01:35:27;;;;;;;22.88;13.20;;;;;;;;;;5082361;28;20196;-67
2022/03/06 01:37:53;;;;;;;23.13;12.23;;;;;;;;;;5082076;28;20212;-67
2022/03/06 01:40:19;;;;;;;18.08;12.30;;;;;;;;;;5082136;28;20203;-67
2022/03/06 01:42:47;;;;;;;20.40;12.50;;;;;;;;;;5082370;28;20196;-67
2022/03/06 01:45:14;;;;;;;24.17;12.75;;;;;;;;;;5082260;28;20209;-67
2022/03/06 01:47:42;;;;;;;20.35;11.52;;;;;;;;;;5082098;28;20193;-67
2022/03/06 01:50:10;;;;;;;19.70;11.93;;;;;;;;;;5082195;28;20503;-67
2022/03/06 01:52:36;;;;;;;20.48;11.82;;;;;;;;;;5082076;28;20411;-67
2022/03/06 01:55:02;;;;;;;18.33;12.07;;;;;;;;;;5082290;28;20200;-67
2022/03/06 01:57:29;;;;;;;20.33;12.95;;;;;;;;;;5081968;28;20523;-67
2022/03/06 01:59:56;;;;;;;20.13;12.43;;;;;;;;;;5082045;28;20205;-67
2022/03/06 02:02:23;;;;;;;21.15;12.65;;;;;;;;;;5082195;28;20249;-67
2022/03/06 02:04:49;;;;;;;19.10;12.70;;;;;;;;;;5081976;28;20196;-67
2022/03/06 02:07:15;;;;;;;19.23;13.18;;;;;;;;;;5081693;28;20200;-67
2022/03/06 02:09:41;;;;;;;20.17;13.13;;;;;;;;;;5081848;28;20488;-67
2022/03/06 02:12:24;;;;;;;23.20;13.52;;;;;;;;;;5081933;28;20204;-67
2022/03/06 02:14:50;;;;;;;20.80;12.57;;;;;;;;;;5081940;28;20618;-67
2022/03/06 02:17:18;;;;;;;19.25;11.85;;;;;;;;;;5082088;28;20235;-67
2022/03/06 02:19:51;;;;;;;19.95;13.07;;;;;;;;;;5081806;28;20205;-67
2022/03/06 02:22:19;;;;;;;19.15;12.32;;;;;;;;;;5082011;28;20211;-67
2022/03/06 02:24:45;;;;;;;24.58;12.82;;;;;;;;;;5082036;28;20200;-67
2022/03/06 02:27:11;;;;;;;21.25;12.27;;;;;;;;;;5081670;28;20200;-67
2022/03/06 02:29:39;;;;;;;18.73;12.00;;;;;;;;;;5081844;28;20200;-67
2022/03/06 02:32:07;;;;;;;20.67;12.15;;;;;;;;;;5081684;28;20234;-67
2022/03/06 02:34:33;;;;;;;19.30;12.18;;;;;;;;;;5081941;28;20208;-67
2022/03/06 02:37:00;;;;;;;20.65;12.38;;;;;;;;;;5081523;28;20204;-67
2022/03/06 02:39:28;;;;;;;20.52;11.93;;;;;;;;;;5081784;28;20197;-67
2022/03/06 02:41:54;;;;;;;20.77;12.80;;;;;;;;;;5081890;28;20197;-67
2022/03/06 02:44:21;;;;;;;19.67;12.00;;;;;;;;;;5081684;28;20208;-67
2022/03/06 02:46:47;;;;;;;21.70;13.43;;;;;;;;;;5081226;28;20234;-67
2022/03/06 02:49:14;;;;;;;22.20;13.05;;;;;;;;;;5081808;28;20199;-67
2022/03/06 02:51:41;;;;;;;22.15;12.93;;;;;;;;;;5081669;28;20388;-67
2022/03/06 02:54:07;;;;;;;22.00;12.63;;;;;;;;;;5080951;28;20201;-67
2022/03/06 02:56:35;;;;;;;19.75;12.32;;;;;;;;;;5081147;28;20196;-67
2022/03/06 02:59:01;;;;;;;21.58;12.35;;;;;;;;;;5081749;28;20238;-67
2022/03/06 03:01:27;;;;;;;20.77;12.98;;;;;;;;;;5083656;28;20197;-67
2022/03/06 03:03:54;;;;;;;23.40;13.85;;;;;;;;;;5085298;28;20197;-67
2022/03/06 03:06:20;;;;;;;21.60;14.10;;;;;;;;;;5084932;28;20290;-67
2022/03/06 03:08:47;;;;;;;22.30;13.55;;;;;;;;;;5085179;28;20197;-68
2022/03/06 03:11:14;;;;;;;24.02;13.60;;;;;;;;;;5084830;28;20197;-67
2022/03/06 03:13:41;;;;;;;21.45;14.07;;;;;;;;;;5085075;28;20218;-67
2022/03/06 03:16:08;;;;;;;23.15;12.82;;;;;;;;;;5084966;28;20437;-67
2022/03/06 03:18:34;;;;;;;22.38;13.63;;;;;;;;;;5084849;28;20239;-67
2022/03/06 03:21:01;;;;;;;21.13;13.57;;;;;;;;;;5084911;28;20268;-67
2022/03/06 03:23:28;;;;;;;23.83;13.77;;;;;;;;;;5084860;28;20202;-67
2022/03/06 03:25:55;;;;;;;24.08;14.00;;;;;;;;;;5084695;28;20227;-67
2022/03/06 03:28:21;;;;;;;23.60;13.73;;;;;;;;;;5084797;28;20196;-67
2022/03/06 03:30:48;;;;;;;23.77;14.10;;;;;;;;;;5084865;28;20211;-67
2022/03/06 03:33:15;;;;;;;21.73;13.77;;;;;;;;;;5084553;28;20200;-67
2022/03/06 03:35:41;;;;;;;23.30;14.60;;;;;;;;;;5084564;28;20201;-67
2022/03/06 03:38:07;;;;;;;21.85;13.35;;;;;;;;;;5084224;28;20593;-67
2022/03/06 03:40:34;;;;;;;26.60;14.23;;;;;;;;;;5084744;28;20499;-67
2022/03/06 03:43:00;;;;;;;22.42;14.07;;;;;;;;;;5084628;28;20196;-67
2022/03/06 03:45:26;;;;;;;21.75;13.32;;;;;;;;;;5084434;28;20231;-67
2022/03/06 03:47:54;;;;;;;20.50;12.60;;;;;;;;;;5084259;28;20185;-67
2022/03/06 03:50:20;;;;;;;20.23;12.93;;;;;;;;;;5084381;28;20211;-67
2022/03/06 03:52:46;;;;;;;24.30;12.90;;;;;;;;;;5084434;28;20234;-67
2022/03/06 03:55:13;;;;;;;22.48;13.32;;;;;;;;;;5084467;28;20219;-67
2022/03/06 03:57:39;;;;;;;23.08;12.98;;;;;;;;;;5084176;28;20220;-67
2022/03/06 04:00:06;;;;;;;23.58;12.65;;;;;;;;;;5084364;28;20203;-67
2022/03/06 04:02:33;;;;;;;22.60;12.35;;;;;;;;;;5084220;28;20200;-67
2022/03/06 04:05:00;;;;;;;18.27;12.43;;;;;;;;;;5083971;28;20216;-67
2022/03/06 04:07:27;;;;;;;19.05;12.02;;;;;;;;;;5083750;28;20197;-67
2022/03/06 04:09:53;;;;;;;19.08;11.50;;;;;;;;;;5084120;28;20499;-67
2022/03/06 04:12:19;;;;;;;19.65;12.30;;;;;;;;;;5082908;28;20575;-67
2022/03/06 04:14:45;;;;;;;21.25;12.60;;;;;;;;;;5084028;28;20196;-67
2022/03/06 04:17:12;;;;;;;19.42;12.00;;;;;;;;;;5083574;28;20203;-67
2022/03/06 04:19:38;;;;;;;19.23;12.15;;;;;;;;;;5083644;28;20263;-67
2022/03/06 04:22:06;;;;;;;20.90;11.98;;;;;;;;;;5083593;28;20519;-67
2022/03/06 04:24:32;;;;;;;19.90;11.63;;;;;;;;;;5083669;28;20204;-67
2022/03/06 04:26:58;;;;;;;19.52;10.82;;;;;;;;;;5083512;28;20536;-67
2022/03/06 04:29:25;;;;;;;20.60;11.52;;;;;;;;;;5083596;28;20500;-67
2022/03/06 04:31:51;;;;;;;19.35;12.27;;;;;;;;;;5083528;28;20211;-67
2022/03/06 04:34:17;;;;;;;15.75;11.20;;;;;;;;;;5083404;28;20197;-67
2022/03/06 04:36:44;;;;;;;19.08;11.75;;;;;;;;;;5083306;28;20212;-67
2022/03/06 04:39:11;;;;;;;18.75;12.00;;;;;;;;;;5083166;28;20227;-67
2022/03/06 04:41:37;;;;;;;18.77;11.82;;;;;;;;;;5083401;28;20372;-68
2022/03/06 04:44:04;;;;;;;23.13;12.35;;;;;;;;;;5083322;28;20196;-67
2022/03/06 04:46:31;;;;;;;18.83;12.05;;;;;;;;;;5083063;28;20196;-67
2022/03/06 04:48:57;;;;;;;17.45;11.55;;;;;;;;;;5083225;28;20428;-67
2022/03/06 04:51:23;;;;;;;20.60;12.68;;;;;;;;;;5083379;28;20204;-67
2022/03/06 04:53:50;;;;;;;19.27;12.40;;;;;;;;;;5082979;28;20203;-67
2022/03/06 04:56:17;;;;;;;18.65;12.27;;;;;;;;;;5082893;28;20354;-67
2022/03/06 04:58:44;;;;;;;18.75;12.65;;;;;;;;;;5082951;28;20216;-67
2022/03/06 05:01:10;;;;;;;20.08;12.70;;;;;;;;;;5082991;28;20246;-67
2022/03/06 05:03:36;;;;;;;20.77;12.63;;;;;;;;;;5082833;28;20196;-67
2022/03/06 05:06:03;;;;;;;23.08;12.40;;;;;;;;;;5082782;28;20251;-67
2022/03/06 05:08:29;;;;;;;24.17;13.27;;;;;;;;;;5082883;28;20504;-67
2022/03/06 05:10:56;;;;;;;21.73;13.50;;;;;;;;;;5082835;28;20204;-67
2022/03/06 05:13:24;;;;;;;22.52;12.88;;;;;;;;;;5082595;28;20394;-67
2022/03/06 05:15:50;;;;;;;23.70;13.55;;;;;;;;;;5082668;28;20499;-67
2022/03/06 05:18:16;;;;;;;18.75;13.13;;;;;;;;;;5082343;28;20593;-67
2022/03/06 05:20:44;;;;;;;19.60;12.82;;;;;;;;;;5082730;28;20395;-68
2022/03/06 05:23:10;;;;;;;19.88;12.45;;;;;;;;;;5082355;28;20197;-67
2022/03/06 05:25:36;;;;;;;21.42;12.05;;;;;;;;;;5082625;28;20200;-67
2022/03/06 05:28:03;;;;;;;20.17;12.70;;;;;;;;;;5082218;28;20200;-67
2022/03/06 05:30:31;;;;;;;31.23;16.48;;;;;;;;;;5082489;28;20235;-67
2022/03/06 05:32:57;;;;;;;21.70;13.65;;;;;;;;;;5082295;28;20363;-67
2022/03/06 05:35:24;;;;;;;26.55;14.15;;;;;;;;;;5082559;28;20208;-67
2022/03/06 05:37:50;;;;;;;25.88;14.63;;;;;;;;;;5082181;28;20524;-67
2022/03/06 05:40:16;;;;;;;30.02;15.93;;;;;;;;;;5082425;28;20393;-67
2022/03/06 05:42:43;;;;;;;26.92;14.55;;;;;;;;;;5082376;28;20204;-67
2022/03/06 05:45:09;;;;;;;25.23;13.73;;;;;;;;;;5082301;28;20220;-67
2022/03/06 05:47:37;;;;;;;21.40;13.20;;;;;;;;;;5081950;28;20196;-67
2022/03/06 05:50:04;;;;;;;22.65;12.93;;;;;;;;;;5082298;28;20192;-67
2022/03/06 05:52:31;;;;;;;21.08;12.80;;;;;;;;;;5082324;28;20233;-67
2022/03/06 05:54:57;;;;;;;23.75;13.32;;;;;;;;;;5082229;28;20208;-67
2022/03/06 05:57:24;;;;;;;22.48;12.70;;;;;;;;;;5081987;28;20203;-67
2022/03/06 05:59:50;;;;;;;20.40;13.02;;;;;;;;;;5081955;28;20226;-67
2022/03/06 06:02:16;;;;;;;20.80;12.73;;;;;;;;;;5082010;28;20242;-67
2022/03/06 06:04:44;;;;;;;18.58;12.52;;;;;;;;;;5082049;28;20196;-67
2022/03/06 06:07:10;;;;;;;20.63;12.27;;;;;;;;;;5081724;28;20204;-67
2022/03/06 06:09:37;;;;;;;22.48;13.43;;;;;;;;;;5082076;28;20197;-67
2022/03/06 06:12:03;;;;;;;20.48;13.18;;;;;;;;;;5081678;28;20207;-67
2022/03/06 06:14:29;;;;;;;20.48;12.82;;;;;;;;;;5081928;28;20200;-67
2022/03/06 06:16:56;;;;;;;20.13;12.40;;;;;;;;;;5081928;28;20204;-67
2022/03/06 06:19:22;;;;;;;22.25;13.13;;;;;;;;;;5082005;28;20228;-67
2022/03/06 06:21:50;;;;;;;19.25;12.48;;;;;;;;;;5081998;28;20208;-67
2022/03/06 06:24:16;;;;;;;18.75;11.70;;;;;;;;;;5081817;28;20203;-67
2022/03/06 06:26:43;;;;;;;19.27;12.48;;;;;;;;;;5081519;28;20200;-67
2022/03/06 06:29:09;;;;;;;20.13;12.77;;;;;;;;;;5081650;28;20263;-67
2022/03/06 06:31:35;;;;;;;23.05;12.95;;;;;;;;;;5081936;28;20271;-67
2022/03/06 06:34:01;;;;;;;21.42;13.98;;;;;;;;;;5081783;28;20211;-67
2022/03/06 06:36:28;;;;;;;25.40;15.07;;;;;;;;;;5084016;28;20200;-67
2022/03/06 06:38:55;;;;;;;23.55;14.07;;;;;;;;;;5085519;28;20223;-67
2022/03/06 06:41:22;;;;;;;23.70;14.35;;;;;;;;;;5085953;28;20196;-67
2022/03/06 06:43:48;;;;;;;23.73;14.18;;;;;;;;;;5085302;28;20499;-67
2022/03/06 06:46:14;;;;;;;24.35;14.13;;;;;;;;;;5085349;28;20266;-67
2022/03/06 06:48:41;;;;;;;23.00;14.10;;;;;;;;;;5085609;28;20546;-67
2022/03/06 06:51:08;;;;;;;19.23;13.20;;;;;;;;;;5085313;28;20387;-67
2022/03/06 06:53:35;;;;;;;21.48;14.07;;;;;;;;;;5085288;28;20263;-67
2022/03/06 06:56:02;;;;;;;24.30;13.45;;;;;;;;;;5084999;28;20496;-67
2022/03/06 06:58:29;;;;;;;20.77;14.60;;;;;;;;;;5085370;28;20200;-67
2022/03/06 07:00:55;;;;;;;21.65;13.75;;;;;;;;;;5085293;28;20196;-67
2022/03/06 07:03:21;;;;;;;23.13;14.18;;;;;;;;;;5085288;28;20403;-67
2022/03/06 07:05:48;;;;;;;24.08;14.38;;;;;;;;;;5084809;28;20216;-67
2022/03/06 07:08:15;;;;;;;23.20;14.27;;;;;;;;;;5084695;28;20202;-65
2022/03/06 07:10:41;;;;;;;24.35;14.98;;;;;;;;;;5084709;28;20193;-67
2022/03/06 07:13:08;;;;;;;22.15;13.70;;;;;;;;;;5084856;28;20460;-67
2022/03/06 07:15:35;;;;;;;23.48;13.00;;;;;;;;;;5085012;28;20196;-67
2022/03/06 07:18:01;;;;;;;26.05;14.85;;;;;;;;;;5084611;28;20204;-67
2022/03/06 07:20:28;;;;;;;23.80;14.30;;;;;;;;;;5084733;28;20227;-67
2022/03/06 07:22:54;;;;;;;26.50;15.20;;;;;;;;;;5084780;28;20537;-67
2022/03/06 07:25:21;;;;;;;25.25;14.18;;;;;;;;;;5084636;28;20200;-65
2022/03/06 07:27:47;;;;;;;24.65;14.80;;;;;;;;;;5084747;28;20197;-65
2022/03/06 07:30:15;;;;;;;29.30;16.45;;;;;;;;;;5084701;28;20249;-67
2022/03/06 07:32:42;;;;;;;70.57;30.38;;;;;;;;;;5084679;28;20196;-65
2022/03/06 07:35:09;;;;;;;66.68;28.10;;;;;;;;;;5084438;28;20203;-67
2022/03/06 07:37:35;;;;;;;36.47;19.75;;;;;;;;;;5084306;28;20212;-65
2022/03/06 07:40:01;;;;;;;44.63;20.85;;;;;;;;;;5084223;28;20212;-68
2022/03/06 07:42:27;;;;;;;28.80;16.13;;;;;;;;;;5084351;28;20268;-68
2022/03/06 07:44:54;;;;;;;27.25;17.67;;;;;;;;;;5084641;28;20527;-67
2022/03/06 07:47:21;;;;;;;29.10;16.52;;;;;;;;;;5084048;28;20388;-67
2022/03/06 07:49:48;;;;;;;25.55;14.60;;;;;;;;;;5084366;28;20393;-67
2022/03/06 07:52:14;;;;;;;24.23;15.00;;;;;;;;;;5084300;28;20523;-67
2022/03/06 07:54:40;;;;;;;25.58;14.55;;;;;;;;;;5084592;28;20512;-66
2022/03/06 07:57:06;;;;;;;23.20;14.30;;;;;;;;;;5083719;28;20202;-67
2022/03/06 07:59:33;;;;;;;26.88;14.98;;;;;;;;;;5084188;28;20524;-67
2022/03/06 08:01:59;;;;;;;25.65;14.50;;;;;;;;;;5084034;28;20518;-69
2022/03/06 08:04:26;;;;;;;34.95;18.55;;;;;;;;;;5084256;28;20504;-68
2022/03/06 08:06:53;;;;;;;41.83;21.92;;;;;;;;;;5083683;28;20539;-68
2022/03/06 08:09:19;;;;;;;42.92;20.25;;;;;;;;;;5083681;28;20218;-66
2022/03/06 08:11:45;;;;;;;45.55;22.70;;;;;;;;;;5083869;28;20204;-66
2022/03/06 08:14:12;;;;;;;29.80;17.05;;;;;;;;;;5083737;28;20204;-67
2022/03/06 08:16:38;;;;;;;24.70;15.88;;;;;;;;;;5083695;28;20196;-68
2022/03/06 08:19:05;;;;;;;24.70;15.43;;;;;;;;;;5083721;28;20543;-68
2022/03/06 08:21:32;;;;;;;24.98;14.65;;;;;;;;;;5083683;28;20200;-67
2022/03/06 08:23:59;;;;;;;22.08;13.48;;;;;;;;;;5083846;28;20203;-66
2022/03/06 08:26:25;;;;;;;20.90;13.95;;;;;;;;;;5083494;28;20200;-57
2022/03/06 08:28:52;;;;;;;27.13;12.63;;;;;;;;;;5083551;28;20242;-60
2022/03/06 08:31:18;;;;;;;24.08;14.45;;;;;;;;;;5083470;28;20196;-59
2022/03/06 08:33:45;;;;;;;23.48;13.63;;;;;;;;;;5083476;28;20280;-59
2022/03/06 08:36:11;;;;;;;20.35;13.65;;;;;;;;;;5083078;28;20196;-60
2022/03/06 08:38:39;;;;;;;19.67;13.45;;;;;;;;;;5083295;28;20203;-60
2022/03/06 08:41:05;;;;;;;22.58;14.15;;;;;;;;;;5083382;28;20512;-59
2022/03/06 08:43:31;;;;;;;24.48;14.48;;;;;;;;;;5083375;28;20203;-58
2022/03/06 08:45:57;;;;;;;22.90;13.82;;;;;;;;;;5083065;28;20203;-58
2022/03/06 08:48:24;;;;;;;24.90;15.15;;;;;;;;;;5083151;28;20655;-58
2022/03/06 08:50:50;;;;;;;21.85;14.43;;;;;;;;;;5082933;28;20565;-59
2022/03/06 08:53:16;;;;;;;24.98;14.00;;;;;;;;;;5083169;28;20448;-59
2022/03/06 08:55:44;;;;;;;21.75;14.70;;;;;;;;;;5083034;28;20492;-60
2022/03/06 08:58:10;;;;;;;19.95;13.43;;;;;;;;;;5082277;28;20526;-58
2022/03/06 09:00:37;;;;;;;22.20;14.38;;;;;;;;;;5083142;28;20216;-58
2022/03/06 09:03:03;;;;;;;22.10;14.40;;;;;;;;;;5082853;28;20203;-58
2022/03/06 09:05:29;;;;;;;18.52;13.57;;;;;;;;;;5082623;28;20217;-59
2022/03/06 09:07:56;;;;;;;21.10;14.65;;;;;;;;;;5082452;28;20196;-60
2022/03/06 09:10:22;;;;;;;21.98;14.07;;;;;;;;;;5083165;28;20222;-60
2022/03/06 09:12:50;;;;;;;18.42;13.30;;;;;;;;;;5082564;28;20567;-59
2022/03/06 09:15:16;;;;;;;18.88;13.32;;;;;;;;;;5082686;28;20200;-60
2022/03/06 09:17:42;;;;;;;19.95;12.73;;;;;;;;;;5082382;28;20588;-60
2022/03/06 09:20:09;;;;;;;16.92;12.52;;;;;;;;;;5082544;28;20524;-59
2022/03/06 09:22:35;;;;;;;16.23;11.13;;;;;;;;;;5082664;28;20199;-58
2022/03/06 09:25:02;;;;;;;17.98;12.63;;;;;;;;;;5082504;28;20220;-59
2022/03/06 09:27:28;;;;;;;17.50;12.23;;;;;;;;;;5082388;28;20196;-60
2022/03/06 09:29:55;;;;;;;16.08;11.20;;;;;;;;;;5082656;28;20211;-59
2022/03/06 09:32:22;;;;;;;16.60;11.95;;;;;;;;;;5082375;28;20250;-59
2022/03/06 09:34:48;;;;;;;16.50;11.80;;;;;;;;;;5082483;28;20208;-59
2022/03/06 09:37:14;;;;;;;18.30;12.43;;;;;;;;;;5082082;28;20243;-59
2022/03/06 09:39:40;;;;;;;18.10;12.68;;;;;;;;;;5082418;28;20250;-58
2022/03/06 09:42:07;;;;;;;16.88;11.80;;;;;;;;;;5082547;28;20200;-58
2022/03/06 09:44:36;;;;;;;17.48;12.50;;;;;;;;;;5082468;28;20202;-60
2022/03/06 09:47:05;;;;;;;18.27;12.45;;;;;;;;;;5073743;28;20488;-58
2022/03/06 09:49:31;;;;;;;15.80;11.85;;;;;;;;;;5075496;28;20236;-59
2022/03/06 09:51:58;;;;;;;17.38;12.32;;;;;;;;;;5076978;28;20208;-59
2022/03/06 09:54:24;;;;;;;15.70;11.20;;;;;;;;;;5077154;28;20250;-60
2022/03/06 09:56:50;;;;;;;18.23;12.45;;;;;;;;;;5076490;28;20318;-60
2022/03/06 09:59:17;;;;;;;17.20;12.05;;;;;;;;;;5076507;28;20208;-57
2022/03/06 10:01:43;;;;;;;21.92;12.18;;;;;;;;;;5076629;28;20245;-57
2022/03/06 10:04:25;;;;;;;16.48;11.77;;;;;;;;;;5076728;28;20196;-58
2022/03/06 10:07:01;;;;;;;16.95;12.13;;;;;;;;;;5076357;28;20224;-60
2022/03/06 10:09:28;;;;;;;15.90;12.05;;;;;;;;;;5076761;28;20212;-56
2022/03/06 10:11:54;;;;;;;18.65;12.63;;;;;;;;;;5079791;28;20216;-60
2022/03/06 10:14:33;;;;;;;16.48;12.23;;;;;;;;;;5080728;28;20247;-60
2022/03/06 10:17:08;;;;;;;15.18;11.23;;;;;;;;;;5080559;28;20208;-57
2022/03/06 10:19:49;;;;;;;14.73;11.77;;;;;;;;;;5080916;28;20207;-60
2022/03/06 10:22:15;;;;;;;15.07;11.52;;;;;;;;;;5080827;28;20554;-59
2022/03/06 10:24:45;;;;;;;16.50;11.32;;;;;;;;;;5080605;28;20215;-58
2022/03/06 10:27:12;;;;;;;15.43;11.68;;;;;;;;;;5080402;28;20231;-58
2022/03/06 10:29:38;;;;;;;16.17;11.75;;;;;;;;;;5080920;28;20208;-60
2022/03/06 10:32:07;;;;;;;16.25;11.77;;;;;;;;;;5080762;28;20215;-58
2022/03/06 10:34:36;;;;;;;16.50;11.38;;;;;;;;;;5080936;28;20208;-58
2022/03/06 10:37:04;;;;;;;14.60;11.27;;;;;;;;;;5080067;28;20208;-60
2022/03/06 10:39:41;;;;;;;16.75;11.52;;;;;;;;;;5080320;28;20209;-59
2022/03/06 10:42:09;;;;;;;19.88;12.25;;;;;;;;;;5080251;28;20215;-59
2022/03/06 10:44:42;;;;;;;17.63;11.75;;;;;;;;;;5080160;28;20215;-59
2022/03/06 10:47:09;;;;;;;14.70;11.63;;;;;;;;;;5079557;28;20530;-59
2022/03/06 10:49:35;;;;;;;15.07;10.98;;;;;;;;;;5079906;28;20512;-60
2022/03/06 10:52:14;;;;;;;13.05;9.85;;;;;;;;;;5080054;28;20248;-60
2022/03/06 10:54:48;;;;;;;15.25;10.93;;;;;;;;;;5080259;28;20208;-59
2022/03/06 10:57:14;;;;;;;17.20;12.18;;;;;;;;;;5079724;28;20207;-59
2022/03/06 10:59:42;;;;;;;15.77;11.20;;;;;;;;;;5080120;28;20481;-60
2022/03/06 11:02:09;;;;;;;19.77;12.07;;;;;;;;;;5079886;28;20500;-58
2022/03/06 11:04:35;;;;;;;15.23;11.32;;;;;;;;;;5079916;28;20215;-60
2022/03/06 11:07:02;;;;;;;17.00;11.25;;;;;;;;;;5079500;28;20224;-59
2022/03/06 11:09:30;;;;;;;14.20;10.95;;;;;;;;;;5079460;28;20208;-58
2022/03/06 11:11:56;;;;;;;14.25;10.27;;;;;;;;;;5079668;28;20544;-60
2022/03/06 11:14:23;;;;;;;14.05;10.40;;;;;;;;;;5079522;28;20215;-58
2022/03/06 11:16:49;;;;;;;13.98;10.20;;;;;;;;;;5079226;28;20216;-59
2022/03/06 11:19:15;;;;;;;18.40;10.98;;;;;;;;;;5079870;28;20262;-59
2022/03/06 11:21:43;;;;;;;13.18;10.20;;;;;;;;;;5079128;28;20223;-59
2022/03/06 11:24:11;;;;;;;16.23;11.57;;;;;;;;;;5079395;28;20231;-58
2022/03/06 11:26:47;;;;;;;13.55;11.13;;;;;;;;;;5079057;28;20582;-59
2022/03/06 11:29:25;;;;;;;13.27;10.35;;;;;;;;;;5079446;28;20212;-60
2022/03/06 11:31:52;;;;;;;14.85;10.90;;;;;;;;;;5079570;28;20258;-58
2022/03/06 11:34:23;;;;;;;14.13;10.57;;;;;;;;;;5079426;28;20213;-58
2022/03/06 11:36:50;;;;;;;15.52;10.10;;;;;;;;;;5078444;28;20215;-60
2022/03/06 11:39:36;;;;;;;14.13;10.68;;;;;;;;;;5079335;28;20208;-60
2022/03/06 11:42:05;;;;;;;13.70;10.77;;;;;;;;;;5078947;28;20265;-59
2022/03/06 11:44:32;;;;;;;12.50;9.40;;;;;;;;;;5079230;28;20208;-60
2022/03/06 11:46:58;;;;;;;14.95;9.90;;;;;;;;;;5078786;28;20288;-59
2022/03/06 11:49:33;;;;;;;13.75;10.10;;;;;;;;;;5079281;28;20516;-59
2022/03/06 11:51:59;;;;;;;12.50;9.75;;;;;;;;;;5079051;28;20196;-59
2022/03/06 11:54:25;;;;;;;11.05;9.18;;;;;;;;;;5078975;28;20578;-59
2022/03/06 11:56:56;;;;;;;14.70;10.63;;;;;;;;;;5078498;28;20205;-58
2022/03/06 11:59:27;;;;;;;11.63;9.32;;;;;;;;;;5078736;28;20230;-60
2022/03/06 12:01:55;;;;;;;13.23;9.90;;;;;;;;;;5078715;28;20228;-59
2022/03/06 12:04:22;;;;;;;11.45;9.50;;;;;;;;;;5078630;28;20209;-60
2022/03/06 12:06:49;;;;;;;13.38;9.68;;;;;;;;;;5078314;28;20551;-60
2022/03/06 12:09:17;;;;;;;14.80;10.20;;;;;;;;;;5078925;28;20209;-59
2022/03/06 12:11:43;;;;;;;11.95;9.52;;;;;;;;;;5078278;28;20219;-60
2022/03/06 12:14:13;;;;;;;11.48;9.70;;;;;;;;;;5078577;28;20217;-59
2022/03/06 12:17:11;;;;;;;13.68;10.13;;;;;;;;;;5078049;28;20363;-59
2022/03/06 12:19:52;;;;;;;12.15;9.52;;;;;;;;;;5078661;28;20212;-59
2022/03/06 12:22:20;;;;;;;12.25;9.55;;;;;;;;;;5077870;28;20477;-59
2022/03/06 12:24:48;;;;;;;11.82;9.43;;;;;;;;;;5078566;28;20214;-60
2022/03/06 12:27:15;;;;;;;12.23;10.55;;;;;;;;;;5076738;28;20442;-60
2022/03/06 12:29:56;;;;;;;14.43;10.82;;;;;;;;;;5078306;28;20215;-60
2022/03/06 12:32:32;;;;;;;12.43;9.70;;;;;;;;;;5077979;28;20223;-58
2022/03/06 12:34:59;;;;;;;11.60;9.65;;;;;;;;;;5077923;28;20212;-60
2022/03/06 12:37:27;;;;;;;12.45;9.80;;;;;;;;;;5077416;28;20230;-59
2022/03/06 12:39:54;;;;;;;11.07;9.15;;;;;;;;;;5078060;28;20208;-59
2022/03/06 12:42:23;;;;;;;12.02;9.73;;;;;;;;;;5079983;28;20542;-59
2022/03/06 12:44:53;;;;;;;12.25;9.05;;;;;;;;;;5083436;28;20196;-58
2022/03/06 12:47:19;;;;;;;12.95;9.50;;;;;;;;;;5083556;28;20204;-60
2022/03/06 12:49:46;;;;;;;10.20;9.13;;;;;;;;;;5083791;28;20196;-58
2022/03/06 12:52:16;;;;;;;12.73;10.10;;;;;;;;;;5083275;28;20228;-60
2022/03/06 12:54:45;;;;;;;12.27;9.88;;;;;;;;;;5082634;28;20204;-59
2022/03/06 12:57:11;;;;;;;11.25;8.82;;;;;;;;;;5083057;28;20382;-59
2022/03/06 12:59:40;;;;;;;12.82;9.65;;;;;;;;;;5083069;28;20196;-60
2022/03/06 13:02:07;;;;;;;10.15;8.73;;;;;;;;;;5083200;28;20554;-59
2022/03/06 13:04:34;;;;;;;13.23;9.38;;;;;;;;;;5082876;28;20201;-59
2022/03/06 13:07:00;;;;;;;11.65;9.90;;;;;;;;;;5082415;28;20238;-58
2022/03/06 13:09:29;;;;;;;12.38;9.95;;;;;;;;;;5083105;28;20200;-60
2022/03/06 13:11:57;;;;;;;12.02;9.90;;;;;;;;;;5082897;28;20201;-60
2022/03/06 13:14:33;;;;;;;12.15;9.32;;;;;;;;;;5082852;28;20492;-59
2022/03/06 13:17:00;;;;;;;12.20;9.27;;;;;;;;;;5082453;28;20202;-59
2022/03/06 13:19:27;;;;;;;11.27;9.45;;;;;;;;;;5082523;28;20203;-59
2022/03/06 13:21:53;;;;;;;12.32;9.60;;;;;;;;;;5082865;28;20315;-59
2022/03/06 13:24:19;;;;;;;11.43;9.98;;;;;;;;;;5082609;28;20201;-59
2022/03/06 13:26:46;;;;;;;11.40;9.52;;;;;;;;;;5082201;28;20200;-58
2022/03/06 13:29:19;;;;;;;11.05;8.90;;;;;;;;;;5082584;28;20197;-60
2022/03/06 13:31:46;;;;;;;11.40;9.60;;;;;;;;;;5082505;28;20192;-59
2022/03/06 13:34:14;;;;;;;10.73;9.18;;;;;;;;;;5082867;28;20220;-58
2022/03/06 13:36:41;;;;;;;10.73;9.43;;;;;;;;;;5082740;28;20396;-59
2022/03/06 13:39:08;;;;;;;10.65;8.68;;;;;;;;;;5083328;28;20200;-59
2022/03/06 13:41:35;;;;;;;11.07;9.10;;;;;;;;;;5082519;28;20243;-59
2022/03/06 13:44:04;;;;;;;11.07;8.95;;;;;;;;;;5082312;28;20365;-59
2022/03/06 13:46:37;;;;;;;11.00;9.45;;;;;;;;;;5081930;28;20518;-60
2022/03/06 13:49:10;;;;;;;12.45;9.95;;;;;;;;;;5082503;28;20204;-59
2022/03/06 13:51:37;;;;;;;10.45;9.00;;;;;;;;;;5082212;28;20192;-60
2022/03/06 13:54:06;;;;;;;10.93;9.45;;;;;;;;;;5082457;28;20196;-59
2022/03/06 13:56:34;;;;;;;13.50;9.60;;;;;;;;;;5082121;28;20196;-59
2022/03/06 13:59:00;;;;;;;12.10;9.65;;;;;;;;;;5081998;28;20530;-58
2022/03/06 14:01:27;;;;;;;11.70;9.00;;;;;;;;;;5082088;28;20224;-58
2022/03/06 14:03:59;;;;;;;9.80;8.68;;;;;;;;;;5082341;28;20197;-58
2022/03/06 14:06:33;;;;;;;11.00;9.23;;;;;;;;;;5081911;28;20216;-57
2022/03/06 14:08:59;;;;;;;10.77;9.13;;;;;;;;;;5082072;28;20200;-59
2022/03/06 14:11:26;;;;;;;10.80;8.73;;;;;;;;;;5081857;28;20200;-59
2022/03/06 14:13:53;;;;;;;11.27;9.45;;;;;;;;;;5081950;28;20219;-59
2022/03/06 14:16:25;;;;;;;11.93;9.13;;;;;;;;;;5082083;28;20512;-58
2022/03/06 14:18:52;;;;;;;11.50;9.07;;;;;;;;;;5082078;28;20223;-58